sensor_id;sensor_type;location;lat;lon;timestamp;P1;durP1;ratioP1;P2;durP2;ratioP2
65853;SDS011;52627;48.838;2.402;2024-01-06T00:01:16;8.90;;;4.70;;
65853;SDS011;52627;48.838;2.402;2024-01-06T00:03:43;9.30;;;4.80;;
65853;SDS011;52627;48.838;2.402;2024-01-06T00:06:12;9.20;;;4.20;;
65853;SDS011;52627;48.838;2.402;2024-01-06T00:08:40;6.70;;;3.90;;
65853;SDS011;52627;48.838;2.402;2024-01-06T00:11:07;11.20;;;4.80;;
65853;SDS011;52627;48.838;2.402;2024-01-06T00:13:34;9.70;;;4.10;;
65853;SDS011;52627;48.838;2.402;2024-01-06T00:16:01;8.00;;;4.50;;
65853;SDS011;52627;48.838;2.402;2024-01-06T00:18:27;7.70;;;4.00;;
65853;SDS011;52627;48.838;2.402;2024-01-06T00:20:54;7.30;;;4.60;;
65853;SDS011;52627;48.838;2.402;2024-01-06T00:23:21;6.70;;;3.90;;
65853;SDS011;52627;48.838;2.402;2024-01-06T00:25:48;8.70;;;4.40;;
65853;SDS011;52627;48.838;2.402;2024-01-06T00:28:15;8.00;;;4.40;;
65853;SDS011;52627;48.838;2.402;2024-01-06T00:30:42;8.20;;;4.40;;
65853;SDS011;52627;48.838;2.402;2024-01-06T00:33:08;7.70;;;4.10;;
65853;SDS011;52627;48.838;2.402;2024-01-06T00:35:35;8.20;;;4.50;;
65853;SDS011;52627;48.838;2.402;2024-01-06T00:38:02;10.00;;;4.70;;
65853;SDS011;52627;48.838;2.402;2024-01-06T00:40:29;6.20;;;3.90;;
65853;SDS011;52627;48.838;2.402;2024-01-06T00:42:56;7.20;;;4.20;;
65853;SDS011;52627;48.838;2.402;2024-01-06T00:45:23;10.30;;;5.50;;
65853;SDS011;52627;48.838;2.402;2024-01-06T00:47:50;9.10;;;4.60;;
65853;SDS011;52627;48.838;2.402;2024-01-06T00:50:18;9.80;;;4.30;;
65853;SDS011;52627;48.838;2.402;2024-01-06T00:52:46;8.70;;;4.40;;
65853;SDS011;52627;48.838;2.402;2024-01-06T00:55:13;7.80;;;4.20;;
65853;SDS011;52627;48.838;2.402;2024-01-06T00:57:40;9.90;;;4.30;;
65853;SDS011;52627;48.838;2.402;2024-01-06T01:00:07;7.60;;;3.90;;
65853;SDS011;52627;48.838;2.402;2024-01-06T01:02:34;8.40;;;4.70;;
65853;SDS011;52627;48.838;2.402;2024-01-06T01:05:06;8.00;;;4.30;;
65853;SDS011;52627;48.838;2.402;2024-01-06T01:07:36;8.50;;;4.40;;
65853;SDS011;52627;48.838;2.402;2024-01-06T01:10:03;9.70;;;5.20;;
65853;SDS011;52627;48.838;2.402;2024-01-06T01:12:31;6.10;;;4.30;;
65853;SDS011;52627;48.838;2.402;2024-01-06T01:14:58;8.80;;;4.50;;
65853;SDS011;52627;48.838;2.402;2024-01-06T01:17:25;10.70;;;4.30;;
65853;SDS011;52627;48.838;2.402;2024-01-06T01:19:52;10.90;;;4.50;;
65853;SDS011;52627;48.838;2.402;2024-01-06T01:22:19;8.40;;;4.30;;
65853;SDS011;52627;48.838;2.402;2024-01-06T01:24:46;6.30;;;4.20;;
65853;SDS011;52627;48.838;2.402;2024-01-06T01:27:13;8.90;;;4.50;;
65853;SDS011;52627;48.838;2.402;2024-01-06T01:29:40;11.70;;;5.10;;
65853;SDS011;52627;48.838;2.402;2024-01-06T01:32:07;6.90;;;4.10;;
65853;SDS011;52627;48.838;2.402;2024-01-06T01:34:34;7.20;;;4.10;;
65853;SDS011;52627;48.838;2.402;2024-01-06T01:37:01;7.50;;;4.50;;
65853;SDS011;52627;48.838;2.402;2024-01-06T01:39:28;7.10;;;4.10;;
65853;SDS011;52627;48.838;2.402;2024-01-06T01:41:55;8.70;;;4.50;;
65853;SDS011;52627;48.838;2.402;2024-01-06T01:44:21;12.10;;;4.70;;
65853;SDS011;52627;48.838;2.402;2024-01-06T01:46:48;7.20;;;4.50;;
65853;SDS011;52627;48.838;2.402;2024-01-06T01:49:15;8.90;;;4.30;;
65853;SDS011;52627;48.838;2.402;2024-01-06T01:51:43;7.90;;;4.20;;
65853;SDS011;52627;48.838;2.402;2024-01-06T01:54:11;6.30;;;4.20;;
65853;SDS011;52627;48.838;2.402;2024-01-06T01:56:39;8.00;;;4.00;;
65853;SDS011;52627;48.838;2.402;2024-01-06T01:59:12;8.70;;;4.60;;
65853;SDS011;52627;48.838;2.402;2024-01-06T02:01:40;7.90;;;4.00;;
65853;SDS011;52627;48.838;2.402;2024-01-06T02:04:10;6.80;;;4.00;;
65853;SDS011;52627;48.838;2.402;2024-01-06T02:06:38;10.60;;;4.30;;
65853;SDS011;52627;48.838;2.402;2024-01-06T02:09:05;10.00;;;4.60;;
65853;SDS011;52627;48.838;2.402;2024-01-06T02:11:32;8.30;;;4.50;;
65853;SDS011;52627;48.838;2.402;2024-01-06T02:13:59;9.20;;;4.40;;
65853;SDS011;52627;48.838;2.402;2024-01-06T02:16:27;7.50;;;4.60;;
65853;SDS011;52627;48.838;2.402;2024-01-06T02:18:54;9.40;;;5.30;;
65853;SDS011;52627;48.838;2.402;2024-01-06T02:21:22;9.30;;;4.60;;
65853;SDS011;52627;48.838;2.402;2024-01-06T02:23:50;8.40;;;4.80;;
65853;SDS011;52627;48.838;2.402;2024-01-06T02:26:17;9.30;;;4.50;;
65853;SDS011;52627;48.838;2.402;2024-01-06T02:28:44;12.50;;;5.30;;
65853;SDS011;52627;48.838;2.402;2024-01-06T02:31:14;9.20;;;5.00;;
65853;SDS011;52627;48.838;2.402;2024-01-06T02:33:41;8.10;;;4.30;;
65853;SDS011;52627;48.838;2.402;2024-01-06T02:36:08;7.30;;;4.30;;
65853;SDS011;52627;48.838;2.402;2024-01-06T02:38:36;9.20;;;4.90;;
65853;SDS011;52627;48.838;2.402;2024-01-06T02:41:03;10.00;;;4.70;;
65853;SDS011;52627;48.838;2.402;2024-01-06T02:43:30;8.50;;;4.50;;
65853;SDS011;52627;48.838;2.402;2024-01-06T02:45:57;9.80;;;5.00;;
65853;SDS011;52627;48.838;2.402;2024-01-06T02:48:24;9.00;;;4.80;;
65853;SDS011;52627;48.838;2.402;2024-01-06T02:50:51;9.70;;;4.70;;
65853;SDS011;52627;48.838;2.402;2024-01-06T02:53:18;10.20;;;5.00;;
65853;SDS011;52627;48.838;2.402;2024-01-06T02:55:45;10.20;;;4.80;;
65853;SDS011;52627;48.838;2.402;2024-01-06T02:58:12;8.20;;;4.40;;
65853;SDS011;52627;48.838;2.402;2024-01-06T03:00:39;8.30;;;4.70;;
65853;SDS011;52627;48.838;2.402;2024-01-06T03:03:06;8.90;;;4.40;;
65853;SDS011;52627;48.838;2.402;2024-01-06T03:05:33;7.60;;;4.40;;
65853;SDS011;52627;48.838;2.402;2024-01-06T03:08:00;7.00;;;4.40;;
65853;SDS011;52627;48.838;2.402;2024-01-06T03:10:27;7.80;;;5.00;;
65853;SDS011;52627;48.838;2.402;2024-01-06T03:12:54;8.60;;;4.90;;
65853;SDS011;52627;48.838;2.402;2024-01-06T03:15:22;9.90;;;5.00;;
65853;SDS011;52627;48.838;2.402;2024-01-06T03:17:49;9.70;;;4.70;;
65853;SDS011;52627;48.838;2.402;2024-01-06T03:20:16;8.10;;;5.10;;
65853;SDS011;52627;48.838;2.402;2024-01-06T03:22:42;9.10;;;4.90;;
65853;SDS011;52627;48.838;2.402;2024-01-06T03:25:09;9.10;;;4.80;;
65853;SDS011;52627;48.838;2.402;2024-01-06T03:27:36;7.90;;;5.10;;
65853;SDS011;52627;48.838;2.402;2024-01-06T03:30:04;10.10;;;5.40;;
65853;SDS011;52627;48.838;2.402;2024-01-06T03:32:32;7.80;;;4.80;;
65853;SDS011;52627;48.838;2.402;2024-01-06T03:34:59;7.70;;;4.90;;
65853;SDS011;52627;48.838;2.402;2024-01-06T03:37:26;7.70;;;4.50;;
65853;SDS011;52627;48.838;2.402;2024-01-06T03:39:53;8.70;;;5.10;;
65853;SDS011;52627;48.838;2.402;2024-01-06T03:42:20;9.10;;;5.20;;
65853;SDS011;52627;48.838;2.402;2024-01-06T03:44:47;8.20;;;5.10;;
65853;SDS011;52627;48.838;2.402;2024-01-06T03:47:15;9.50;;;5.50;;
65853;SDS011;52627;48.838;2.402;2024-01-06T03:49:42;8.30;;;5.40;;
65853;SDS011;52627;48.838;2.402;2024-01-06T03:52:09;10.90;;;5.40;;
65853;SDS011;52627;48.838;2.402;2024-01-06T03:54:36;9.40;;;5.40;;
65853;SDS011;52627;48.838;2.402;2024-01-06T03:57:03;9.20;;;5.10;;
65853;SDS011;52627;48.838;2.402;2024-01-06T03:59:30;8.50;;;4.90;;
65853;SDS011;52627;48.838;2.402;2024-01-06T04:01:57;9.70;;;4.90;;
65853;SDS011;52627;48.838;2.402;2024-01-06T04:04:29;9.30;;;5.00;;
65853;SDS011;52627;48.838;2.402;2024-01-06T04:06:56;7.40;;;4.70;;
65853;SDS011;52627;48.838;2.402;2024-01-06T04:09:23;10.40;;;5.20;;
65853;SDS011;52627;48.838;2.402;2024-01-06T04:11:51;7.40;;;5.10;;
65853;SDS011;52627;48.838;2.402;2024-01-06T04:14:18;8.00;;;5.10;;
65853;SDS011;52627;48.838;2.402;2024-01-06T04:16:45;9.30;;;5.10;;
65853;SDS011;52627;48.838;2.402;2024-01-06T04:19:14;9.80;;;5.30;;
65853;SDS011;52627;48.838;2.402;2024-01-06T04:21:42;8.70;;;5.10;;
65853;SDS011;52627;48.838;2.402;2024-01-06T04:24:09;7.70;;;5.50;;
65853;SDS011;52627;48.838;2.402;2024-01-06T04:26:36;8.50;;;5.50;;
65853;SDS011;52627;48.838;2.402;2024-01-06T04:29:02;7.40;;;5.30;;
65853;SDS011;52627;48.838;2.402;2024-01-06T04:31:29;9.20;;;5.20;;
65853;SDS011;52627;48.838;2.402;2024-01-06T04:33:56;11.20;;;6.30;;
65853;SDS011;52627;48.838;2.402;2024-01-06T04:36:23;9.60;;;6.10;;
65853;SDS011;52627;48.838;2.402;2024-01-06T04:38:51;13.40;;;7.60;;
65853;SDS011;52627;48.838;2.402;2024-01-06T04:41:18;13.00;;;9.00;;
65853;SDS011;52627;48.838;2.402;2024-01-06T04:43:45;13.70;;;8.30;;
65853;SDS011;52627;48.838;2.402;2024-01-06T04:46:12;16.60;;;11.80;;
65853;SDS011;52627;48.838;2.402;2024-01-06T04:48:41;23.20;;;14.90;;
65853;SDS011;52627;48.838;2.402;2024-01-06T04:51:11;21.30;;;15.30;;
65853;SDS011;52627;48.838;2.402;2024-01-06T04:53:38;21.00;;;14.80;;
65853;SDS011;52627;48.838;2.402;2024-01-06T04:56:05;19.80;;;13.50;;
65853;SDS011;52627;48.838;2.402;2024-01-06T04:58:32;17.40;;;13.10;;
65853;SDS011;52627;48.838;2.402;2024-01-06T05:01:01;18.90;;;12.30;;
65853;SDS011;52627;48.838;2.402;2024-01-06T05:03:30;18.90;;;11.80;;
65853;SDS011;52627;48.838;2.402;2024-01-06T05:05:57;15.40;;;11.40;;
65853;SDS011;52627;48.838;2.402;2024-01-06T05:08:25;18.10;;;10.90;;
65853;SDS011;52627;48.838;2.402;2024-01-06T05:10:53;18.00;;;11.50;;
65853;SDS011;52627;48.838;2.402;2024-01-06T05:13:20;15.00;;;10.60;;
65853;SDS011;52627;48.838;2.402;2024-01-06T05:15:47;15.50;;;10.60;;
65853;SDS011;52627;48.838;2.402;2024-01-06T05:18:14;15.60;;;10.10;;
65853;SDS011;52627;48.838;2.402;2024-01-06T05:20:41;13.30;;;8.50;;
65853;SDS011;52627;48.838;2.402;2024-01-06T05:23:08;13.90;;;9.20;;
65853;SDS011;52627;48.838;2.402;2024-01-06T05:25:34;12.50;;;8.60;;
65853;SDS011;52627;48.838;2.402;2024-01-06T05:28:01;13.80;;;9.30;;
65853;SDS011;52627;48.838;2.402;2024-01-06T05:30:28;12.90;;;7.90;;
65853;SDS011;52627;48.838;2.402;2024-01-06T05:32:55;11.60;;;7.70;;
65853;SDS011;52627;48.838;2.402;2024-01-06T05:35:22;13.00;;;7.90;;
65853;SDS011;52627;48.838;2.402;2024-01-06T05:37:49;9.50;;;6.50;;
65853;SDS011;52627;48.838;2.402;2024-01-06T05:40:16;11.80;;;7.20;;
65853;SDS011;52627;48.838;2.402;2024-01-06T05:42:43;10.60;;;6.80;;
65853;SDS011;52627;48.838;2.402;2024-01-06T05:45:11;11.30;;;7.30;;
65853;SDS011;52627;48.838;2.402;2024-01-06T05:47:39;12.60;;;7.00;;
65853;SDS011;52627;48.838;2.402;2024-01-06T05:50:07;13.50;;;7.30;;
65853;SDS011;52627;48.838;2.402;2024-01-06T05:52:36;12.20;;;6.80;;
65853;SDS011;52627;48.838;2.402;2024-01-06T05:55:04;12.60;;;7.40;;
65853;SDS011;52627;48.838;2.402;2024-01-06T05:57:31;15.00;;;6.90;;
65853;SDS011;52627;48.838;2.402;2024-01-06T05:59:59;12.70;;;6.80;;
65853;SDS011;52627;48.838;2.402;2024-01-06T06:02:26;10.30;;;6.80;;
65853;SDS011;52627;48.838;2.402;2024-01-06T06:04:53;11.30;;;6.90;;
65853;SDS011;52627;48.838;2.402;2024-01-06T06:07:20;13.50;;;7.30;;
65853;SDS011;52627;48.838;2.402;2024-01-06T06:09:47;10.60;;;6.90;;
65853;SDS011;52627;48.838;2.402;2024-01-06T06:12:14;10.50;;;6.30;;
65853;SDS011;52627;48.838;2.402;2024-01-06T06:14:41;11.20;;;6.90;;
65853;SDS011;52627;48.838;2.402;2024-01-06T06:17:08;10.90;;;5.90;;
65853;SDS011;52627;48.838;2.402;2024-01-06T06:19:35;9.30;;;6.60;;
65853;SDS011;52627;48.838;2.402;2024-01-06T06:22:03;9.50;;;6.40;;
65853;SDS011;52627;48.838;2.402;2024-01-06T06:24:30;10.20;;;5.80;;
65853;SDS011;52627;48.838;2.402;2024-01-06T06:26:57;9.40;;;5.70;;
65853;SDS011;52627;48.838;2.402;2024-01-06T06:29:24;9.40;;;6.00;;
65853;SDS011;52627;48.838;2.402;2024-01-06T06:31:51;10.10;;;5.40;;
65853;SDS011;52627;48.838;2.402;2024-01-06T06:34:18;8.40;;;5.20;;
65853;SDS011;52627;48.838;2.402;2024-01-06T06:36:45;8.70;;;5.20;;
65853;SDS011;52627;48.838;2.402;2024-01-06T06:39:13;9.20;;;5.00;;
65853;SDS011;52627;48.838;2.402;2024-01-06T06:41:40;7.00;;;4.10;;
65853;SDS011;52627;48.838;2.402;2024-01-06T06:44:07;8.40;;;4.80;;
65853;SDS011;52627;48.838;2.402;2024-01-06T06:46:34;8.00;;;4.30;;
65853;SDS011;52627;48.838;2.402;2024-01-06T06:49:01;8.50;;;4.30;;
65853;SDS011;52627;48.838;2.402;2024-01-06T06:51:29;8.30;;;3.40;;
65853;SDS011;52627;48.838;2.402;2024-01-06T06:53:57;7.80;;;3.70;;
65853;SDS011;52627;48.838;2.402;2024-01-06T06:56:25;8.00;;;4.00;;
65853;SDS011;52627;48.838;2.402;2024-01-06T06:58:52;9.90;;;3.70;;
65853;SDS011;52627;48.838;2.402;2024-01-06T07:01:19;7.20;;;4.00;;
65853;SDS011;52627;48.838;2.402;2024-01-06T07:03:47;6.70;;;3.20;;
65853;SDS011;52627;48.838;2.402;2024-01-06T07:06:14;8.30;;;3.60;;
65853;SDS011;52627;48.838;2.402;2024-01-06T07:08:42;6.80;;;4.00;;
65853;SDS011;52627;48.838;2.402;2024-01-06T07:11:09;9.20;;;4.30;;
65853;SDS011;52627;48.838;2.402;2024-01-06T07:13:37;9.00;;;4.80;;
65853;SDS011;52627;48.838;2.402;2024-01-06T07:16:05;7.70;;;4.00;;
65853;SDS011;52627;48.838;2.402;2024-01-06T07:18:44;9.00;;;4.30;;
65853;SDS011;52627;48.838;2.402;2024-01-06T07:21:12;8.00;;;4.30;;
65853;SDS011;52627;48.838;2.402;2024-01-06T07:23:44;9.30;;;4.40;;
65853;SDS011;52627;48.838;2.402;2024-01-06T07:26:11;7.60;;;4.00;;
65853;SDS011;52627;48.838;2.402;2024-01-06T07:28:38;9.10;;;4.30;;
65853;SDS011;52627;48.838;2.402;2024-01-06T07:31:04;9.60;;;4.30;;
65853;SDS011;52627;48.838;2.402;2024-01-06T07:33:32;7.30;;;4.10;;
65853;SDS011;52627;48.838;2.402;2024-01-06T07:35:59;8.70;;;4.80;;
65853;SDS011;52627;48.838;2.402;2024-01-06T07:38:26;8.90;;;4.70;;
65853;SDS011;52627;48.838;2.402;2024-01-06T07:40:54;9.60;;;4.30;;
65853;SDS011;52627;48.838;2.402;2024-01-06T07:43:21;8.30;;;4.70;;
65853;SDS011;52627;48.838;2.402;2024-01-06T07:45:48;10.50;;;4.70;;
65853;SDS011;52627;48.838;2.402;2024-01-06T07:48:16;8.70;;;4.40;;
65853;SDS011;52627;48.838;2.402;2024-01-06T07:50:44;10.80;;;5.50;;
65853;SDS011;52627;48.838;2.402;2024-01-06T07:53:12;11.00;;;6.00;;
65853;SDS011;52627;48.838;2.402;2024-01-06T07:55:40;10.40;;;5.50;;
65853;SDS011;52627;48.838;2.402;2024-01-06T07:58:07;7.90;;;5.30;;
65853;SDS011;52627;48.838;2.402;2024-01-06T08:00:34;9.80;;;4.90;;
65853;SDS011;52627;48.838;2.402;2024-01-06T08:03:01;8.90;;;4.70;;
65853;SDS011;52627;48.838;2.402;2024-01-06T08:05:29;9.10;;;4.80;;
65853;SDS011;52627;48.838;2.402;2024-01-06T08:07:57;9.20;;;5.10;;
65853;SDS011;52627;48.838;2.402;2024-01-06T08:10:24;7.80;;;4.40;;
65853;SDS011;52627;48.838;2.402;2024-01-06T08:12:51;9.80;;;4.50;;
65853;SDS011;52627;48.838;2.402;2024-01-06T08:15:18;12.10;;;4.60;;
65853;SDS011;52627;48.838;2.402;2024-01-06T08:17:45;8.60;;;4.70;;
65853;SDS011;52627;48.838;2.402;2024-01-06T08:20:13;7.80;;;3.90;;
65853;SDS011;52627;48.838;2.402;2024-01-06T08:22:40;11.50;;;5.00;;
65853;SDS011;52627;48.838;2.402;2024-01-06T08:25:07;7.60;;;4.30;;
65853;SDS011;52627;48.838;2.402;2024-01-06T08:27:34;8.20;;;4.60;;
65853;SDS011;52627;48.838;2.402;2024-01-06T08:30:01;7.60;;;4.10;;
65853;SDS011;52627;48.838;2.402;2024-01-06T08:32:28;7.40;;;4.50;;
65853;SDS011;52627;48.838;2.402;2024-01-06T08:34:56;7.70;;;4.50;;
65853;SDS011;52627;48.838;2.402;2024-01-06T08:37:23;9.00;;;4.70;;
65853;SDS011;52627;48.838;2.402;2024-01-06T08:39:49;7.10;;;4.20;;
65853;SDS011;52627;48.838;2.402;2024-01-06T08:42:16;7.60;;;3.60;;
65853;SDS011;52627;48.838;2.402;2024-01-06T08:44:44;7.20;;;4.00;;
65853;SDS011;52627;48.838;2.402;2024-01-06T08:47:11;7.10;;;3.80;;
65853;SDS011;52627;48.838;2.402;2024-01-06T08:49:38;9.20;;;3.70;;
65853;SDS011;52627;48.838;2.402;2024-01-06T08:52:05;7.30;;;3.20;;
65853;SDS011;52627;48.838;2.402;2024-01-06T08:54:32;7.80;;;3.70;;
65853;SDS011;52627;48.838;2.402;2024-01-06T08:56:59;11.70;;;4.40;;
65853;SDS011;52627;48.838;2.402;2024-01-06T08:59:26;9.30;;;5.20;;
65853;SDS011;52627;48.838;2.402;2024-01-06T09:01:53;8.70;;;4.60;;
65853;SDS011;52627;48.838;2.402;2024-01-06T09:04:20;9.40;;;4.60;;
65853;SDS011;52627;48.838;2.402;2024-01-06T09:06:47;8.10;;;4.10;;
65853;SDS011;52627;48.838;2.402;2024-01-06T09:09:14;7.80;;;4.00;;
65853;SDS011;52627;48.838;2.402;2024-01-06T09:11:41;10.10;;;4.20;;
65853;SDS011;52627;48.838;2.402;2024-01-06T09:14:10;6.80;;;3.40;;
65853;SDS011;52627;48.838;2.402;2024-01-06T09:16:37;5.70;;;3.20;;
65853;SDS011;52627;48.838;2.402;2024-01-06T09:19:04;6.50;;;3.00;;
65853;SDS011;52627;48.838;2.402;2024-01-06T09:21:31;6.90;;;2.70;;
65853;SDS011;52627;48.838;2.402;2024-01-06T09:23:58;6.50;;;2.90;;
65853;SDS011;52627;48.838;2.402;2024-01-06T09:26:26;8.10;;;3.10;;
65853;SDS011;52627;48.838;2.402;2024-01-06T09:28:53;5.90;;;3.10;;
65853;SDS011;52627;48.838;2.402;2024-01-06T09:31:20;5.10;;;2.30;;
65853;SDS011;52627;48.838;2.402;2024-01-06T09:33:47;7.10;;;3.00;;
65853;SDS011;52627;48.838;2.402;2024-01-06T09:36:16;4.90;;;2.70;;
65853;SDS011;52627;48.838;2.402;2024-01-06T09:38:43;5.70;;;3.30;;
65853;SDS011;52627;48.838;2.402;2024-01-06T09:41:10;5.90;;;2.70;;
65853;SDS011;52627;48.838;2.402;2024-01-06T09:43:37;5.20;;;2.30;;
65853;SDS011;52627;48.838;2.402;2024-01-06T09:48:48;6.20;;;2.40;;
65853;SDS011;52627;48.838;2.402;2024-01-06T09:51:20;5.00;;;2.40;;
65853;SDS011;52627;48.838;2.402;2024-01-06T09:53:58;4.70;;;2.00;;
65853;SDS011;52627;48.838;2.402;2024-01-06T09:56:28;5.30;;;2.30;;
65853;SDS011;52627;48.838;2.402;2024-01-06T09:58:56;5.40;;;1.90;;
65853;SDS011;52627;48.838;2.402;2024-01-06T10:01:23;5.00;;;2.00;;
65853;SDS011;52627;48.838;2.402;2024-01-06T10:03:50;3.80;;;1.90;;
65853;SDS011;52627;48.838;2.402;2024-01-06T10:06:18;6.40;;;2.00;;
65853;SDS011;52627;48.838;2.402;2024-01-06T10:08:50;4.20;;;1.80;;
65853;SDS011;52627;48.838;2.402;2024-01-06T10:11:22;4.00;;;1.50;;
65853;SDS011;52627;48.838;2.402;2024-01-06T10:13:50;5.30;;;1.60;;
65853;SDS011;52627;48.838;2.402;2024-01-06T10:16:18;5.60;;;2.00;;
65853;SDS011;52627;48.838;2.402;2024-01-06T10:18:45;5.20;;;2.20;;
65853;SDS011;52627;48.838;2.402;2024-01-06T10:21:17;4.70;;;2.10;;
65853;SDS011;52627;48.838;2.402;2024-01-06T10:23:48;4.70;;;2.20;;
65853;SDS011;52627;48.838;2.402;2024-01-06T10:26:15;5.40;;;2.00;;
65853;SDS011;52627;48.838;2.402;2024-01-06T10:28:42;5.70;;;2.10;;
65853;SDS011;52627;48.838;2.402;2024-01-06T10:31:08;4.80;;;2.00;;
65853;SDS011;52627;48.838;2.402;2024-01-06T10:33:36;6.00;;;2.00;;
65853;SDS011;52627;48.838;2.402;2024-01-06T10:36:03;4.80;;;2.20;;
65853;SDS011;52627;48.838;2.402;2024-01-06T10:38:33;5.20;;;1.80;;
65853;SDS011;52627;48.838;2.402;2024-01-06T10:41:03;8.40;;;2.50;;
65853;SDS011;52627;48.838;2.402;2024-01-06T10:43:37;5.10;;;1.60;;
65853;SDS011;52627;48.838;2.402;2024-01-06T10:48:38;5.10;;;1.80;;
65853;SDS011;52627;48.838;2.402;2024-01-06T10:53:37;4.40;;;1.50;;
65853;SDS011;52627;48.838;2.402;2024-01-06T10:56:06;5.30;;;1.70;;
65853;SDS011;52627;48.838;2.402;2024-01-06T10:58:47;3.70;;;1.60;;
65853;SDS011;52627;48.838;2.402;2024-01-06T11:01:21;5.80;;;2.00;;
65853;SDS011;52627;48.838;2.402;2024-01-06T11:03:54;6.90;;;1.90;;
65853;SDS011;52627;48.838;2.402;2024-01-06T11:06:22;6.00;;;1.80;;
65853;SDS011;52627;48.838;2.402;2024-01-06T11:09:09;5.90;;;2.10;;
65853;SDS011;52627;48.838;2.402;2024-01-06T11:11:40;4.70;;;1.90;;
65853;SDS011;52627;48.838;2.402;2024-01-06T11:16:48;6.00;;;2.00;;
65853;SDS011;52627;48.838;2.402;2024-01-06T11:22:30;4.40;;;1.70;;
65853;SDS011;52627;48.838;2.402;2024-01-06T11:25:14;5.90;;;2.40;;
65853;SDS011;52627;48.838;2.402;2024-01-06T11:27:47;4.10;;;1.90;;
65853;SDS011;52627;48.838;2.402;2024-01-06T11:32:50;5.60;;;1.70;;
65853;SDS011;52627;48.838;2.402;2024-01-06T11:35:21;4.70;;;1.90;;
65853;SDS011;52627;48.838;2.402;2024-01-06T11:40:22;5.50;;;1.90;;
65853;SDS011;52627;48.838;2.402;2024-01-06T11:43:01;9.20;;;2.30;;
65853;SDS011;52627;48.838;2.402;2024-01-06T11:45:33;4.40;;;1.80;;
65853;SDS011;52627;48.838;2.402;2024-01-06T11:48:06;4.20;;;1.40;;
65853;SDS011;52627;48.838;2.402;2024-01-06T11:50:36;5.60;;;2.30;;
65853;SDS011;52627;48.838;2.402;2024-01-06T11:53:05;5.30;;;1.80;;
65853;SDS011;52627;48.838;2.402;2024-01-06T11:55:34;5.20;;;1.80;;
65853;SDS011;52627;48.838;2.402;2024-01-06T11:58:01;5.60;;;1.70;;
65853;SDS011;52627;48.838;2.402;2024-01-06T12:00:30;5.80;;;1.80;;
65853;SDS011;52627;48.838;2.402;2024-01-06T12:02:58;3.80;;;1.70;;
65853;SDS011;52627;48.838;2.402;2024-01-06T12:05:26;7.40;;;1.60;;
65853;SDS011;52627;48.838;2.402;2024-01-06T12:08:01;5.50;;;1.50;;
65853;SDS011;52627;48.838;2.402;2024-01-06T12:10:33;4.10;;;1.50;;
65853;SDS011;52627;48.838;2.402;2024-01-06T12:13:07;5.50;;;1.80;;
65853;SDS011;52627;48.838;2.402;2024-01-06T12:15:36;6.00;;;1.80;;
65853;SDS011;52627;48.838;2.402;2024-01-06T12:18:06;5.20;;;1.60;;
65853;SDS011;52627;48.838;2.402;2024-01-06T12:20:34;3.90;;;1.90;;
65853;SDS011;52627;48.838;2.402;2024-01-06T12:23:00;6.10;;;1.60;;
65853;SDS011;52627;48.838;2.402;2024-01-06T12:25:28;5.30;;;1.40;;
65853;SDS011;52627;48.838;2.402;2024-01-06T12:27:55;4.00;;;1.50;;
65853;SDS011;52627;48.838;2.402;2024-01-06T12:30:22;4.50;;;1.40;;
65853;SDS011;52627;48.838;2.402;2024-01-06T12:32:50;5.30;;;1.60;;
65853;SDS011;52627;48.838;2.402;2024-01-06T12:35:20;3.80;;;2.00;;
65853;SDS011;52627;48.838;2.402;2024-01-06T12:37:48;3.60;;;1.30;;
65853;SDS011;52627;48.838;2.402;2024-01-06T12:40:16;5.30;;;1.60;;
65853;SDS011;52627;48.838;2.402;2024-01-06T12:42:43;3.60;;;1.20;;
65853;SDS011;52627;48.838;2.402;2024-01-06T12:45:11;4.00;;;1.40;;
65853;SDS011;52627;48.838;2.402;2024-01-06T12:47:39;5.10;;;1.60;;
65853;SDS011;52627;48.838;2.402;2024-01-06T12:50:07;6.90;;;1.70;;
65853;SDS011;52627;48.838;2.402;2024-01-06T12:52:34;5.90;;;1.70;;
65853;SDS011;52627;48.838;2.402;2024-01-06T12:55:02;2.90;;;1.20;;
65853;SDS011;52627;48.838;2.402;2024-01-06T12:57:29;4.80;;;1.50;;
65853;SDS011;52627;48.838;2.402;2024-01-06T12:59:57;4.50;;;1.40;;
65853;SDS011;52627;48.838;2.402;2024-01-06T13:02:24;3.40;;;1.40;;
65853;SDS011;52627;48.838;2.402;2024-01-06T13:04:51;4.60;;;1.40;;
65853;SDS011;52627;48.838;2.402;2024-01-06T13:07:17;4.10;;;1.20;;
65853;SDS011;52627;48.838;2.402;2024-01-06T13:09:44;2.90;;;1.40;;
65853;SDS011;52627;48.838;2.402;2024-01-06T13:12:12;4.50;;;1.40;;
65853;SDS011;52627;48.838;2.402;2024-01-06T13:14:39;5.60;;;1.50;;
65853;SDS011;52627;48.838;2.402;2024-01-06T13:17:05;3.50;;;1.40;;
65853;SDS011;52627;48.838;2.402;2024-01-06T13:19:32;3.90;;;1.70;;
65853;SDS011;52627;48.838;2.402;2024-01-06T13:22:00;5.40;;;1.70;;
65853;SDS011;52627;48.838;2.402;2024-01-06T13:24:27;4.20;;;1.80;;
65853;SDS011;52627;48.838;2.402;2024-01-06T13:26:54;4.80;;;1.60;;
65853;SDS011;52627;48.838;2.402;2024-01-06T13:29:24;5.70;;;1.60;;
65853;SDS011;52627;48.838;2.402;2024-01-06T13:31:51;6.00;;;2.10;;
65853;SDS011;52627;48.838;2.402;2024-01-06T13:34:19;5.30;;;1.80;;
65853;SDS011;52627;48.838;2.402;2024-01-06T13:36:46;4.00;;;1.50;;
65853;SDS011;52627;48.838;2.402;2024-01-06T13:39:14;5.20;;;1.90;;
65853;SDS011;52627;48.838;2.402;2024-01-06T13:41:47;4.00;;;1.40;;
65853;SDS011;52627;48.838;2.402;2024-01-06T13:44:15;4.60;;;1.70;;
65853;SDS011;52627;48.838;2.402;2024-01-06T13:46:42;4.80;;;1.70;;
65853;SDS011;52627;48.838;2.402;2024-01-06T13:49:11;4.80;;;1.60;;
65853;SDS011;52627;48.838;2.402;2024-01-06T13:51:42;3.80;;;1.30;;
65853;SDS011;52627;48.838;2.402;2024-01-06T13:56:36;3.90;;;1.30;;
65853;SDS011;52627;48.838;2.402;2024-01-06T13:59:03;4.70;;;1.30;;
65853;SDS011;52627;48.838;2.402;2024-01-06T14:01:31;5.20;;;1.40;;
65853;SDS011;52627;48.838;2.402;2024-01-06T14:03:59;4.00;;;1.40;;
65853;SDS011;52627;48.838;2.402;2024-01-06T14:06:27;4.20;;;1.30;;
65853;SDS011;52627;48.838;2.402;2024-01-06T14:08:57;3.30;;;1.20;;
65853;SDS011;52627;48.838;2.402;2024-01-06T14:11:26;4.70;;;1.50;;
65853;SDS011;52627;48.838;2.402;2024-01-06T14:13:53;4.20;;;1.30;;
65853;SDS011;52627;48.838;2.402;2024-01-06T14:16:20;4.70;;;1.10;;
65853;SDS011;52627;48.838;2.402;2024-01-06T14:18:47;3.40;;;1.20;;
65853;SDS011;52627;48.838;2.402;2024-01-06T14:21:14;5.20;;;1.40;;
65853;SDS011;52627;48.838;2.402;2024-01-06T14:23:48;4.50;;;1.50;;
65853;SDS011;52627;48.838;2.402;2024-01-06T14:26:19;4.60;;;2.00;;
65853;SDS011;52627;48.838;2.402;2024-01-06T14:28:47;7.90;;;1.80;;
65853;SDS011;52627;48.838;2.402;2024-01-06T14:31:14;4.20;;;1.70;;
65853;SDS011;52627;48.838;2.402;2024-01-06T14:33:42;7.40;;;1.90;;
65853;SDS011;52627;48.838;2.402;2024-01-06T14:36:09;5.50;;;1.60;;
65853;SDS011;52627;48.838;2.402;2024-01-06T14:38:35;6.40;;;1.70;;
65853;SDS011;52627;48.838;2.402;2024-01-06T14:41:03;5.60;;;1.80;;
65853;SDS011;52627;48.838;2.402;2024-01-06T14:43:30;4.60;;;1.50;;
65853;SDS011;52627;48.838;2.402;2024-01-06T14:45:57;4.60;;;1.60;;
65853;SDS011;52627;48.838;2.402;2024-01-06T14:48:24;2.70;;;1.40;;
65853;SDS011;52627;48.838;2.402;2024-01-06T14:50:51;5.50;;;1.40;;
65853;SDS011;52627;48.838;2.402;2024-01-06T14:53:18;3.70;;;1.20;;
65853;SDS011;52627;48.838;2.402;2024-01-06T14:55:45;4.30;;;1.50;;
65853;SDS011;52627;48.838;2.402;2024-01-06T14:58:12;3.70;;;1.20;;
65853;SDS011;52627;48.838;2.402;2024-01-06T15:00:39;6.10;;;1.70;;
65853;SDS011;52627;48.838;2.402;2024-01-06T15:03:06;4.60;;;1.30;;
65853;SDS011;52627;48.838;2.402;2024-01-06T15:05:33;5.40;;;1.40;;
65853;SDS011;52627;48.838;2.402;2024-01-06T15:08:00;4.70;;;1.70;;
65853;SDS011;52627;48.838;2.402;2024-01-06T15:10:27;5.20;;;1.40;;